createdAt,value
2017-11-09T00:01:20.214Z,1009.32
2017-11-09T00:02:00.704Z,1009.32
2017-11-09T00:02:41.190Z,1009.31
2017-11-09T00:03:21.668Z,1009.27
2017-11-09T00:04:02.142Z,1009.28
2017-11-09T00:04:42.632Z,1009.29
2017-11-09T00:05:23.111Z,1009.25
2017-11-09T00:06:03.595Z,1009.29
2017-11-09T00:06:44.086Z,1009.25
2017-11-09T00:07:24.562Z,1009.26
2017-11-09T00:08:05.043Z,1009.27
2017-11-09T00:08:45.545Z,1009.3
2017-11-09T00:09:26.019Z,1009.28
2017-11-09T00:10:06.506Z,1009.3
2017-11-09T00:10:47.000Z,1009.27
2017-11-09T00:11:27.479Z,1009.28
2017-11-09T00:12:07.963Z,1009.28
2017-11-09T00:12:48.459Z,1009.32
2017-11-09T00:13:28.961Z,1009.33
2017-11-09T00:14:09.430Z,1009.3
2017-11-09T00:14:49.923Z,1009.3
2017-11-09T00:15:30.394Z,1009.29
2017-11-09T00:16:10.890Z,1009.32
2017-11-09T00:16:51.372Z,1009.29
2017-11-09T00:17:31.874Z,1009.28
2017-11-09T00:18:12.384Z,1009.33
2017-11-09T00:18:52.872Z,1009.32
2017-11-09T00:19:33.373Z,1009.29
2017-11-09T00:20:13.864Z,1009.27
2017-11-09T00:20:54.352Z,1009.3
2017-11-09T00:21:34.824Z,1009.28
2017-11-09T00:22:15.319Z,1009.27
2017-11-09T00:22:55.800Z,1009.25
2017-11-09T00:23:36.286Z,1009.29
2017-11-09T00:24:16.778Z,1009.28
2017-11-09T00:24:57.271Z,1009.27
2017-11-09T00:25:37.773Z,1009.28
2017-11-09T00:26:18.247Z,1009.26
2017-11-09T00:26:58.733Z,1009.26
2017-11-09T00:27:39.224Z,1009.26
2017-11-09T00:28:19.708Z,1009.26
2017-11-09T00:29:00.170Z,1009.29
2017-11-09T00:29:40.668Z,1009.24
2017-11-09T00:30:21.150Z,1009.25
2017-11-09T00:31:01.651Z,1009.26
2017-11-09T00:31:42.147Z,1009.29
2017-11-09T00:32:22.632Z,1009.25
2017-11-09T00:33:03.112Z,1009.28
2017-11-09T00:33:43.582Z,1009.29
2017-11-09T00:34:24.044Z,1009.26
2017-11-09T00:35:04.539Z,1009.22
2017-11-09T00:35:45.017Z,1009.22
2017-11-09T00:36:25.502Z,1009.25
2017-11-09T00:37:05.985Z,1009.28
2017-11-09T00:37:46.477Z,1009.27
2017-11-09T00:38:26.958Z,1009.25
2017-11-09T00:39:07.459Z,1009.25
2017-11-09T00:39:47.951Z,1009.23
2017-11-09T00:40:28.433Z,1009.21
2017-11-09T00:41:08.923Z,1009.25
2017-11-09T00:41:49.387Z,1009.24
2017-11-09T00:42:29.888Z,1009.25
2017-11-09T00:43:10.349Z,1009.24
2017-11-09T00:43:50.811Z,1009.23
2017-11-09T00:44:31.295Z,1009.23
2017-11-09T00:45:11.785Z,1009.26
2017-11-09T00:45:52.260Z,1009.24
2017-11-09T00:46:32.724Z,1009.22
2017-11-09T00:47:13.215Z,1009.2
2017-11-09T00:47:53.684Z,1009.21
2017-11-09T00:48:34.169Z,1009.23
2017-11-09T00:49:14.663Z,1009.19
2017-11-09T00:49:55.133Z,1009.19
2017-11-09T00:50:35.620Z,1009.24
2017-11-09T00:51:16.117Z,1009.24
2017-11-09T00:51:56.614Z,1009.21
2017-11-09T00:52:37.105Z,1009.19
2017-11-09T00:53:17.596Z,1009.2
2017-11-09T00:53:58.087Z,1009.22
2017-11-09T00:54:38.573Z,1009.22
2017-11-09T00:55:19.055Z,1009.19
2017-11-09T00:55:59.567Z,1009.24
2017-11-09T00:56:40.026Z,1009.2
2017-11-09T00:57:20.501Z,1009.24
2017-11-09T00:58:00.977Z,1009.22
2017-11-09T00:58:41.462Z,1009.26
2017-11-09T00:59:21.955Z,1009.2
2017-11-09T01:00:02.443Z,1009.22
2017-11-09T01:00:42.936Z,1009.19
2017-11-09T01:01:23.442Z,1009.19
2017-11-09T01:02:03.954Z,1009.22
2017-11-09T01:02:44.565Z,1009.27
2017-11-09T01:03:25.038Z,1009.26
2017-11-09T01:04:05.534Z,1009.19
2017-11-09T01:04:46.020Z,1009.21
2017-11-09T01:05:26.509Z,1009.22
2017-11-09T01:06:06.992Z,1009.23
2017-11-09T01:06:47.465Z,1009.25
2017-11-09T01:07:27.982Z,1009.21
2017-11-09T01:08:08.501Z,1009.23
2017-11-09T01:08:48.972Z,1009.24
2017-11-09T01:09:29.453Z,1009.21
2017-11-09T01:10:09.943Z,1009.21
2017-11-09T01:10:50.435Z,1009.19
2017-11-09T01:11:30.923Z,1009.23
2017-11-09T01:12:11.396Z,1009.19
2017-11-09T01:12:51.895Z,1009.23
2017-11-09T01:13:32.367Z,1009.16
2017-11-09T01:14:12.858Z,1009.17
2017-11-09T01:14:53.343Z,1009.15
2017-11-09T01:15:33.829Z,1009.17
2017-11-09T01:16:14.332Z,1009.16
2017-11-09T01:16:54.799Z,1009.16
2017-11-09T01:17:35.296Z,1009.21
2017-11-09T01:18:15.773Z,1009.16
2017-11-09T01:18:56.233Z,1009.18
2017-11-09T01:19:36.689Z,1009.15
2017-11-09T01:20:17.149Z,1009.16
2017-11-09T01:20:57.650Z,1009.19
2017-11-09T01:21:38.143Z,1009.23
2017-11-09T01:22:18.639Z,1009.24
2017-11-09T01:22:59.124Z,1009.26
2017-11-09T01:23:39.609Z,1009.21
2017-11-09T01:24:20.088Z,1009.19
2017-11-09T01:25:00.573Z,1009.21
2017-11-09T01:25:41.063Z,1009.2
2017-11-09T01:26:21.540Z,1009.19
2017-11-09T01:27:02.031Z,1009.18
2017-11-09T01:27:42.515Z,1009.14
2017-11-09T01:28:22.998Z,1009.14
2017-11-09T01:29:03.479Z,1009.15
2017-11-09T01:29:43.974Z,1009.15
2017-11-09T01:30:24.472Z,1009.2
2017-11-09T01:31:04.949Z,1009.2
2017-11-09T01:31:45.428Z,1009.2
2017-11-09T01:32:25.921Z,1009.23
2017-11-09T01:33:06.409Z,1009.19
2017-11-09T01:33:46.892Z,1009.17
2017-11-09T01:34:27.389Z,1009.17
2017-11-09T01:35:07.884Z,1009.2
2017-11-09T01:35:48.367Z,1009.18
2017-11-09T01:36:28.860Z,1009.19
2017-11-09T01:37:09.352Z,1009.15
2017-11-09T01:37:49.831Z,1009.13
2017-11-09T01:38:30.321Z,1009.17
2017-11-09T01:39:10.809Z,1009.15
2017-11-09T01:39:51.300Z,1009.17
2017-11-09T01:40:31.784Z,1009.1
2017-11-09T01:41:12.274Z,1009.14
2017-11-09T01:41:52.775Z,1009.13
2017-11-09T01:42:33.256Z,1009.1
2017-11-09T01:43:13.754Z,1009.12
2017-11-09T01:43:54.238Z,1009.1
2017-11-09T01:44:34.667Z,1009.11
2017-11-09T01:45:15.116Z,1009.1
2017-11-09T01:45:55.559Z,1009.09
2017-11-09T01:46:36.024Z,1009.11
2017-11-09T01:47:16.465Z,1009.13
2017-11-09T01:47:56.919Z,1009.1
2017-11-09T01:48:37.376Z,1009.1
2017-11-09T01:50:34.995Z,1009.18
2017-11-09T01:51:15.434Z,1009.15
2017-11-09T01:51:55.912Z,1009.21
2017-11-09T01:52:36.437Z,1009.19
2017-11-09T01:53:16.905Z,1009.21
2017-11-09T01:53:57.387Z,1009.21
2017-11-09T01:54:37.871Z,1009.19
2017-11-09T01:55:18.427Z,1009.2
2017-11-09T01:55:58.841Z,1009.24
2017-11-09T01:56:39.316Z,1009.23
2017-11-09T01:57:19.800Z,1009.26
2017-11-09T01:58:00.284Z,1009.26
2017-11-09T01:58:40.762Z,1009.27
2017-11-09T01:59:21.234Z,1009.27
2017-11-09T02:00:01.712Z,1009.28
2017-11-09T02:00:42.201Z,1009.29
2017-11-09T02:01:22.683Z,1009.28
2017-11-09T02:02:03.168Z,1009.31
2017-11-09T02:02:43.664Z,1009.34
2017-11-09T02:03:24.169Z,1009.32
2017-11-09T02:04:04.637Z,1009.32
2017-11-09T02:04:45.124Z,1009.36
2017-11-09T02:05:25.606Z,1009.33
2017-11-09T02:06:06.096Z,1009.34
2017-11-09T02:06:46.576Z,1009.29
2017-11-09T02:07:27.249Z,1009.34
2017-11-09T02:08:07.675Z,1009.28
2017-11-09T02:08:48.157Z,1009.32
2017-11-09T02:09:28.669Z,1009.28
2017-11-09T02:10:09.155Z,1009.3
2017-11-09T02:10:49.646Z,1009.31
2017-11-09T02:11:30.125Z,1009.32
2017-11-09T02:12:10.618Z,1009.29
2017-11-09T02:12:51.109Z,1009.29
2017-11-09T02:13:31.592Z,1009.25
2017-11-09T02:14:12.081Z,1009.28
2017-11-09T02:14:52.564Z,1009.29
2017-11-09T02:15:33.061Z,1009.28
2017-11-09T02:16:13.553Z,1009.26
2017-11-09T02:16:54.042Z,1009.29
2017-11-09T02:17:34.527Z,1009.29
2017-11-09T02:18:15.015Z,1009.33
2017-11-09T02:18:55.510Z,1009.32
2017-11-09T02:19:35.992Z,1009.32
2017-11-09T02:20:16.467Z,1009.28
2017-11-09T02:20:56.947Z,1009.34
2017-11-09T02:21:37.430Z,1009.36
2017-11-09T02:22:17.914Z,1009.3
2017-11-09T02:22:58.396Z,1009.35
2017-11-09T02:23:38.872Z,1009.29
2017-11-09T02:24:19.372Z,1009.3
2017-11-09T02:24:59.863Z,1009.35
2017-11-09T02:25:40.335Z,1009.34
2017-11-09T02:26:20.802Z,1009.29
2017-11-09T02:27:01.289Z,1009.32
2017-11-09T02:27:41.787Z,1009.33
2017-11-09T02:28:22.237Z,1009.34
2017-11-09T02:29:02.716Z,1009.37
2017-11-09T02:29:43.179Z,1009.35
2017-11-09T02:30:23.657Z,1009.35
2017-11-09T02:31:04.146Z,1009.35
2017-11-09T02:31:44.646Z,1009.35
2017-11-09T02:32:25.127Z,1009.39
2017-11-09T02:33:05.610Z,1009.36
2017-11-09T02:33:46.114Z,1009.36
2017-11-09T02:34:26.605Z,1009.39
2017-11-09T02:35:07.097Z,1009.39
2017-11-09T02:35:47.575Z,1009.37
2017-11-09T02:36:28.050Z,1009.39
2017-11-09T02:37:08.532Z,1009.38
2017-11-09T02:37:49.034Z,1009.37
2017-11-09T02:38:29.534Z,1009.38
2017-11-09T02:39:10.018Z,1009.37
2017-11-09T02:39:50.491Z,1009.38
2017-11-09T02:40:30.978Z,1009.38
2017-11-09T02:41:11.465Z,1009.41
2017-11-09T02:41:51.947Z,1009.41
2017-11-09T02:42:32.430Z,1009.44
2017-11-09T02:43:12.893Z,1009.4
2017-11-09T02:43:53.375Z,1009.38
2017-11-09T02:44:33.855Z,1009.36
2017-11-09T02:45:14.351Z,1009.4
2017-11-09T02:45:54.823Z,1009.43
2017-11-09T02:46:35.301Z,1009.39
2017-11-09T02:47:15.802Z,1009.39
2017-11-09T02:47:56.307Z,1009.41
2017-11-09T02:48:36.809Z,1009.42
2017-11-09T02:49:17.303Z,1009.39
2017-11-09T02:49:57.782Z,1009.44
2017-11-09T02:50:38.256Z,1009.44
2017-11-09T02:51:18.736Z,1009.43
2017-11-09T02:51:59.227Z,1009.45
2017-11-09T02:52:39.703Z,1009.46
2017-11-09T02:53:20.188Z,1009.52
2017-11-09T02:54:00.675Z,1009.51
2017-11-09T02:54:41.134Z,1009.5
2017-11-09T02:55:21.620Z,1009.51
2017-11-09T02:56:02.108Z,1009.49
2017-11-09T02:56:42.583Z,1009.51
2017-11-09T02:57:23.077Z,1009.47
2017-11-09T02:58:03.558Z,1009.5
2017-11-09T02:58:44.049Z,1009.44
2017-11-09T02:59:24.549Z,1009.5
2017-11-09T03:00:05.039Z,1009.49
2017-11-09T03:00:45.520Z,1009.47
2017-11-09T03:01:26.007Z,1009.5
2017-11-09T03:02:06.490Z,1009.49
2017-11-09T03:02:46.972Z,1009.47
2017-11-09T03:03:27.476Z,1009.5
2017-11-09T03:04:07.968Z,1009.49
2017-11-09T03:04:48.453Z,1009.47
2017-11-09T03:05:28.900Z,1009.45
2017-11-09T03:06:09.359Z,1009.49
2017-11-09T03:06:49.840Z,1009.46
2017-11-09T03:07:30.320Z,1009.48
2017-11-09T03:08:10.813Z,1009.45
2017-11-09T03:08:51.286Z,1009.45
2017-11-09T03:09:31.774Z,1009.42
2017-11-09T03:10:12.239Z,1009.35
2017-11-09T03:10:52.741Z,1009.37
2017-11-09T03:11:33.228Z,1009.4
2017-11-09T03:12:13.786Z,1009.41
2017-11-09T03:12:54.427Z,1009.43
2017-11-09T03:13:35.045Z,1009.41
2017-11-09T03:14:15.708Z,1009.42
2017-11-09T03:14:56.364Z,1009.43
2017-11-09T03:15:37.010Z,1009.46
2017-11-09T03:16:17.615Z,1009.45
2017-11-09T03:16:58.280Z,1009.45
2017-11-09T03:17:38.917Z,1009.43
2017-11-09T03:18:19.553Z,1009.44
2017-11-09T03:19:00.191Z,1009.46
2017-11-09T03:19:40.737Z,1009.43
2017-11-09T03:21:53.478Z,1009.44
2017-11-09T03:22:33.933Z,1009.45
2017-11-09T03:23:14.415Z,1009.47
2017-11-09T03:23:54.895Z,1009.45
2017-11-09T03:24:35.394Z,1009.45
2017-11-09T03:25:15.800Z,1009.45
2017-11-09T03:25:56.235Z,1009.47
2017-11-09T03:26:36.698Z,1009.45
2017-11-09T03:27:17.149Z,1009.43
2017-11-09T03:27:57.665Z,1009.44
2017-11-09T03:28:38.108Z,1009.43
2017-11-09T03:29:18.610Z,1009.43
2017-11-09T03:31:31.343Z,1009.44
2017-11-09T03:32:11.803Z,1009.42
2017-11-09T03:32:52.270Z,1009.43
2017-11-09T03:33:32.772Z,1009.45
2017-11-09T03:34:13.236Z,1009.46
2017-11-09T03:34:53.738Z,1009.46
2017-11-09T03:35:34.194Z,1009.43
2017-11-09T03:36:14.665Z,1009.46
2017-11-09T03:36:55.143Z,1009.43
2017-11-09T03:37:35.610Z,1009.47
2017-11-09T03:38:16.052Z,1009.42
2017-11-09T03:40:13.683Z,1009.49
2017-11-09T03:40:54.155Z,1009.49
2017-11-09T03:41:34.631Z,1009.49
2017-11-09T03:42:15.118Z,1009.5
2017-11-09T03:42:55.647Z,1009.47
2017-11-09T03:43:36.113Z,1009.46
2017-11-09T03:44:16.567Z,1009.47
2017-11-09T03:44:57.054Z,1009.47
2017-11-09T03:45:37.558Z,1009.47
2017-11-09T03:46:18.043Z,1009.49
2017-11-09T03:46:58.503Z,1009.51
2017-11-09T03:47:38.968Z,1009.5
2017-11-09T03:48:19.445Z,1009.43
2017-11-09T03:48:59.898Z,1009.49
2017-11-09T03:49:40.401Z,1009.5
2017-11-09T03:50:20.860Z,1009.53
2017-11-09T03:51:01.335Z,1009.54
2017-11-09T03:51:41.796Z,1009.55
2017-11-09T03:53:34.341Z,1009.57
2017-11-09T03:54:14.841Z,1009.57
2017-11-09T03:54:55.418Z,1009.54
2017-11-09T03:55:35.885Z,1009.55
2017-11-09T03:56:16.355Z,1009.57
2017-11-09T03:56:56.834Z,1009.56
2017-11-09T03:57:37.809Z,1009.62
2017-11-09T03:58:18.278Z,1009.62
2017-11-09T03:58:58.763Z,1009.61
2017-11-09T03:59:39.236Z,1009.62
2017-11-09T04:00:19.698Z,1009.64
2017-11-09T04:01:00.176Z,1009.6
2017-11-09T04:03:28.109Z,1009.66
2017-11-09T04:04:08.595Z,1009.65
2017-11-09T04:04:49.061Z,1009.67
2017-11-09T04:05:29.494Z,1009.67
2017-11-09T04:06:09.976Z,1009.7
2017-11-09T04:06:50.426Z,1009.68
2017-11-09T04:07:30.881Z,1009.67
2017-11-09T04:08:11.374Z,1009.68
2017-11-09T04:08:51.799Z,1009.67
2017-11-09T04:09:32.288Z,1009.64
2017-11-09T04:10:12.700Z,1009.64
2017-11-09T04:10:53.164Z,1009.63
2017-11-09T04:11:33.623Z,1009.65
2017-11-09T04:12:14.110Z,1009.64
2017-11-09T04:12:54.609Z,1009.67
2017-11-09T04:13:35.075Z,1009.66
2017-11-09T04:14:15.515Z,1009.7
2017-11-09T04:14:55.953Z,1009.71
2017-11-09T04:16:53.545Z,1009.74
2017-11-09T04:17:34.030Z,1009.72
2017-11-09T04:18:14.549Z,1009.73
2017-11-09T04:18:54.999Z,1009.76
2017-11-09T04:19:35.472Z,1009.79
2017-11-09T04:20:16.014Z,1009.82
2017-11-09T04:20:56.468Z,1009.8
2017-11-09T04:21:36.957Z,1009.82
2017-11-09T04:22:17.445Z,1009.84
2017-11-09T04:22:57.928Z,1009.81
2017-11-09T04:23:38.391Z,1009.79
2017-11-09T04:25:30.954Z,1009.8
2017-11-09T04:26:11.436Z,1009.85
2017-11-09T04:26:51.916Z,1009.81
2017-11-09T04:27:32.382Z,1009.87
2017-11-09T04:28:12.856Z,1009.89
2017-11-09T04:28:53.362Z,1009.86
2017-11-09T04:30:45.906Z,1009.85
2017-11-09T04:31:26.398Z,1009.86
2017-11-09T04:32:06.853Z,1009.88
2017-11-09T04:32:47.325Z,1009.91
2017-11-09T04:33:27.781Z,1009.87
2017-11-09T04:34:08.320Z,1009.87
2017-11-09T04:34:48.740Z,1009.81
2017-11-09T04:35:29.254Z,1009.87
2017-11-09T04:36:09.803Z,1009.88
2017-11-09T04:36:50.271Z,1009.85
2017-11-09T04:37:30.775Z,1009.87
2017-11-09T04:38:11.274Z,1009.82
2017-11-09T04:38:51.758Z,1009.86
2017-11-09T04:39:32.204Z,1009.83
2017-11-09T04:40:12.679Z,1009.84
2017-11-09T04:40:53.221Z,1009.83
2017-11-09T04:41:33.718Z,1009.86
2017-11-09T04:42:14.212Z,1009.9
2017-11-09T04:42:54.714Z,1009.87
2017-11-09T04:43:35.160Z,1009.89
2017-11-09T04:44:15.664Z,1009.88
2017-11-09T04:44:56.164Z,1009.85
2017-11-09T04:45:36.647Z,1009.84
2017-11-09T04:46:17.101Z,1009.85
2017-11-09T04:46:57.538Z,1009.85
2017-11-09T04:47:38.015Z,1009.88
2017-11-09T04:48:18.485Z,1009.88
2017-11-09T04:48:58.972Z,1009.89
2017-11-09T04:49:39.441Z,1009.89
2017-11-09T04:50:19.932Z,1009.9
2017-11-09T04:52:12.545Z,1009.96
2017-11-09T04:52:52.968Z,1009.95
2017-11-09T04:53:33.418Z,1009.99
2017-11-09T04:54:13.863Z,1009.99
2017-11-09T04:54:54.311Z,1009.98
2017-11-09T04:55:34.739Z,1010.01
2017-11-09T04:56:15.160Z,1010.02
2017-11-09T04:56:55.608Z,1010.03
2017-11-09T04:57:36.063Z,1010.01
2017-11-09T05:00:03.992Z,1010.03
2017-11-09T05:00:44.444Z,1010.08
2017-11-09T05:01:24.926Z,1010.02
2017-11-09T05:02:05.416Z,1010.06
2017-11-09T05:02:45.898Z,1010.09
2017-11-09T05:03:26.374Z,1010.07
2017-11-09T05:04:06.907Z,1010.07
2017-11-09T05:04:47.378Z,1010.13
2017-11-09T05:05:27.860Z,1010.1
2017-11-09T05:06:08.342Z,1010.16
2017-11-09T05:06:48.801Z,1010.16
2017-11-09T05:07:29.254Z,1010.16
2017-11-09T05:08:09.707Z,1010.18
2017-11-09T05:08:50.135Z,1010.16
2017-11-09T05:09:30.562Z,1010.17
2017-11-09T05:10:11.044Z,1010.14
2017-11-09T05:10:51.496Z,1010.17
2017-11-09T05:11:31.949Z,1010.2
2017-11-09T05:12:12.443Z,1010.19
2017-11-09T05:12:52.865Z,1010.21
2017-11-09T05:13:33.346Z,1010.24
2017-11-09T05:14:13.792Z,1010.26
2017-11-09T05:14:54.235Z,1010.26
2017-11-09T05:15:34.678Z,1010.26
2017-11-09T05:16:15.173Z,1010.24
2017-11-09T05:16:55.633Z,1010.27
2017-11-09T05:17:36.093Z,1010.3
2017-11-09T05:18:17.198Z,1010.25
2017-11-09T05:18:57.651Z,1010.26
2017-11-09T05:19:38.138Z,1010.31
2017-11-09T05:20:18.618Z,1010.32
2017-11-09T05:22:46.510Z,1010.31
2017-11-09T05:23:27.003Z,1010.33
2017-11-09T05:24:07.464Z,1010.4
2017-11-09T05:24:47.934Z,1010.35
2017-11-09T05:25:28.402Z,1010.32
2017-11-09T05:27:56.430Z,1010.33
2017-11-09T05:28:36.849Z,1010.36
2017-11-09T05:29:17.304Z,1010.32
2017-11-09T05:29:57.724Z,1010.31
2017-11-09T05:31:50.276Z,1010.32
2017-11-09T05:32:30.912Z,1010.31
2017-11-09T05:33:11.486Z,1010.34
2017-11-09T05:33:51.980Z,1010.29
2017-11-09T05:34:32.451Z,1010.31
2017-11-09T05:35:12.944Z,1010.31
2017-11-09T05:35:53.421Z,1010.37
2017-11-09T05:36:33.917Z,1010.33
2017-11-09T05:37:14.391Z,1010.34
2017-11-09T05:37:54.851Z,1010.35
2017-11-09T05:38:35.406Z,1010.31
2017-11-09T05:39:15.775Z,1010.36
2017-11-09T05:39:56.268Z,1010.36
2017-11-09T05:40:36.739Z,1010.4
2017-11-09T05:41:17.187Z,1010.41
2017-11-09T05:41:57.654Z,1010.41
2017-11-09T05:42:38.102Z,1010.41
2017-11-09T05:43:18.555Z,1010.44
2017-11-09T05:43:58.983Z,1010.43
2017-11-09T05:46:16.806Z,1010.43
2017-11-09T05:46:57.286Z,1010.41
2017-11-09T05:47:37.746Z,1010.42
2017-11-09T05:48:18.223Z,1010.43
2017-11-09T05:48:58.685Z,1010.44
2017-11-09T05:49:39.127Z,1010.41
2017-11-09T05:50:19.555Z,1010.44
2017-11-09T05:51:00.033Z,1010.43
2017-11-09T05:51:40.497Z,1010.41
2017-11-09T05:52:20.976Z,1010.4
2017-11-09T05:53:01.466Z,1010.45
2017-11-09T05:53:41.916Z,1010.47
2017-11-09T05:55:40.398Z,1010.49
2017-11-09T05:56:20.789Z,1010.49
2017-11-09T05:57:01.332Z,1010.5
2017-11-09T05:57:41.802Z,1010.54
2017-11-09T05:58:22.283Z,1010.55
2017-11-09T05:59:03.802Z,1010.57
2017-11-09T05:59:44.475Z,1010.55
2017-11-09T06:00:25.151Z,1010.52
2017-11-09T06:01:05.790Z,1010.53
2017-11-09T06:01:46.327Z,1010.52
2017-11-09T06:02:26.957Z,1010.55
2017-11-09T06:03:07.519Z,1010.55
2017-11-09T06:03:48.068Z,1010.59
2017-11-09T06:04:28.740Z,1010.58
2017-11-09T06:05:09.365Z,1010.59
2017-11-09T06:05:49.970Z,1010.56
2017-11-09T06:06:30.634Z,1010.58
2017-11-09T06:07:11.343Z,1010.55
2017-11-09T06:07:52.043Z,1010.61
2017-11-09T06:08:32.686Z,1010.61
2017-11-09T06:09:13.322Z,1010.62
2017-11-09T06:09:53.905Z,1010.62
2017-11-09T06:10:34.511Z,1010.63
2017-11-09T06:11:15.117Z,1010.62
2017-11-09T06:11:55.714Z,1010.64
2017-11-09T06:12:36.340Z,1010.63
2017-11-09T06:13:16.966Z,1010.67
2017-11-09T06:13:58.539Z,1010.67
2017-11-09T06:14:39.145Z,1010.66
2017-11-09T06:15:19.794Z,1010.64
2017-11-09T06:16:00.407Z,1010.64
2017-11-09T06:16:41.081Z,1010.65
2017-11-09T06:17:21.701Z,1010.64
2017-11-09T06:18:02.343Z,1010.68
2017-11-09T06:18:42.970Z,1010.65
2017-11-09T06:19:23.624Z,1010.67
2017-11-09T06:20:04.257Z,1010.66
2017-11-09T06:20:44.830Z,1010.64
2017-11-09T06:21:25.379Z,1010.68
2017-11-09T06:22:05.835Z,1010.71
2017-11-09T06:22:46.309Z,1010.73
2017-11-09T06:24:43.936Z,1010.73
2017-11-09T06:25:24.433Z,1010.74
2017-11-09T06:26:04.901Z,1010.74
2017-11-09T06:26:45.389Z,1010.73
2017-11-09T06:27:25.885Z,1010.75
2017-11-09T06:28:06.363Z,1010.76
2017-11-09T06:28:46.849Z,1010.75
2017-11-09T06:29:27.355Z,1010.78
2017-11-09T06:30:07.979Z,1010.77
2017-11-09T06:30:48.558Z,1010.78
2017-11-09T06:31:29.135Z,1010.75
2017-11-09T06:32:09.645Z,1010.79
2017-11-09T06:32:50.100Z,1010.79
2017-11-09T06:33:30.563Z,1010.81
2017-11-09T06:35:58.554Z,1010.85
2017-11-09T06:36:39.162Z,1010.86
2017-11-09T06:37:19.830Z,1010.9
2017-11-09T06:38:00.509Z,1010.88
2017-11-09T06:38:41.159Z,1010.89
2017-11-09T06:39:21.828Z,1010.88
2017-11-09T06:40:02.442Z,1010.87
2017-11-09T06:40:43.049Z,1010.88
2017-11-09T06:41:23.630Z,1010.89
2017-11-09T06:42:04.165Z,1010.93
2017-11-09T06:42:44.789Z,1010.92
2017-11-09T06:43:25.497Z,1010.92
2017-11-09T06:44:06.095Z,1010.93
2017-11-09T06:44:46.671Z,1010.93
2017-11-09T06:45:27.156Z,1010.96
2017-11-09T06:46:07.657Z,1010.96
2017-11-09T06:46:48.146Z,1010.98
2017-11-09T06:47:28.626Z,1010.96
2017-11-09T06:48:09.132Z,1010.95
2017-11-09T06:48:49.735Z,1011
2017-11-09T06:49:30.221Z,1011.03
2017-11-09T06:50:10.723Z,1011
2017-11-09T06:50:51.283Z,1011.04
2017-11-09T06:51:31.821Z,1011.02
2017-11-09T06:52:12.296Z,1011
2017-11-09T06:52:52.789Z,1011.02
2017-11-09T06:53:33.321Z,1011.03
2017-11-09T06:54:13.835Z,1011.05
2017-11-09T06:54:54.360Z,1011.04
2017-11-09T06:55:34.947Z,1011.04
2017-11-09T06:56:15.476Z,1011.02
2017-11-09T06:56:56.021Z,1011.04
2017-11-09T06:57:36.523Z,1010.99
2017-11-09T06:58:17.032Z,1011.06
2017-11-09T06:58:57.486Z,1011.06
2017-11-09T06:59:38.227Z,1011.07
2017-11-09T07:00:18.735Z,1011.03
2017-11-09T07:00:59.223Z,1011.01
2017-11-09T07:01:39.719Z,1011.05
2017-11-09T07:02:20.216Z,1011.03
2017-11-09T07:03:00.696Z,1011.04
2017-11-09T07:03:41.143Z,1011.04
2017-11-09T07:04:21.606Z,1011.05
2017-11-09T07:05:02.078Z,1011.03
2017-11-09T07:05:42.566Z,1011.04
2017-11-09T07:06:23.127Z,1011.02
2017-11-09T07:07:03.605Z,1011.07
2017-11-09T07:07:44.116Z,1011.08
2017-11-09T07:08:24.603Z,1011.05
2017-11-09T07:09:05.118Z,1011.05
2017-11-09T07:09:45.599Z,1011.07
2017-11-09T07:10:26.082Z,1011.15
2017-11-09T07:11:06.571Z,1011.14
2017-11-09T07:11:47.048Z,1011.08
2017-11-09T07:12:27.508Z,1011.16
2017-11-09T07:13:07.970Z,1011.16
2017-11-09T07:13:48.467Z,1011.13
2017-11-09T07:14:28.939Z,1011.18
2017-11-09T07:15:09.418Z,1011.19
2017-11-09T07:15:49.879Z,1011.2
2017-11-09T07:16:30.380Z,1011.19
2017-11-09T07:17:10.867Z,1011.23
2017-11-09T07:17:51.348Z,1011.18
2017-11-09T07:18:31.884Z,1011.23
2017-11-09T07:19:12.354Z,1011.2
2017-11-09T07:19:52.803Z,1011.2
2017-11-09T07:20:33.274Z,1011.24
2017-11-09T07:21:13.715Z,1011.21
2017-11-09T07:21:54.189Z,1011.21
2017-11-09T07:22:34.666Z,1011.23
2017-11-09T07:23:15.204Z,1011.26
2017-11-09T07:23:55.729Z,1011.24
2017-11-09T07:24:36.216Z,1011.28
2017-11-09T07:25:16.695Z,1011.24
2017-11-09T07:25:57.191Z,1011.21
2017-11-09T07:26:37.685Z,1011.25
2017-11-09T07:27:18.158Z,1011.26
2017-11-09T07:27:58.655Z,1011.31
2017-11-09T07:28:39.173Z,1011.3
2017-11-09T07:29:19.653Z,1011.28
2017-11-09T07:30:00.155Z,1011.26
2017-11-09T07:30:40.656Z,1011.3
2017-11-09T07:31:21.135Z,1011.31
2017-11-09T07:32:01.609Z,1011.28
2017-11-09T07:32:42.051Z,1011.33
2017-11-09T07:33:22.531Z,1011.29
2017-11-09T07:34:03.021Z,1011.31
2017-11-09T07:34:43.510Z,1011.33
2017-11-09T07:35:23.999Z,1011.31
2017-11-09T07:36:04.529Z,1011.32
2017-11-09T07:36:45.050Z,1011.31
2017-11-09T07:37:25.537Z,1011.35
2017-11-09T07:38:06.023Z,1011.33
2017-11-09T07:38:46.487Z,1011.35
2017-11-09T07:39:27.003Z,1011.36
2017-11-09T07:40:07.492Z,1011.34
2017-11-09T07:40:47.962Z,1011.31
2017-11-09T07:41:28.472Z,1011.38
2017-11-09T07:42:08.952Z,1011.34
2017-11-09T07:42:49.422Z,1011.34
2017-11-09T07:43:29.933Z,1011.39
2017-11-09T07:44:10.428Z,1011.35
2017-11-09T07:44:50.912Z,1011.38
2017-11-09T07:45:31.410Z,1011.38
2017-11-09T07:46:11.907Z,1011.41
2017-11-09T07:46:52.398Z,1011.39
2017-11-09T07:47:32.934Z,1011.44
2017-11-09T07:48:13.425Z,1011.44
2017-11-09T07:48:53.942Z,1011.41
2017-11-09T07:49:34.408Z,1011.43
2017-11-09T07:50:14.915Z,1011.48
2017-11-09T07:50:55.389Z,1011.46
2017-11-09T07:51:35.885Z,1011.47
2017-11-09T07:52:16.363Z,1011.42
2017-11-09T07:52:56.860Z,1011.47
2017-11-09T07:53:37.352Z,1011.47
2017-11-09T07:54:17.837Z,1011.44
2017-11-09T07:54:58.324Z,1011.49
2017-11-09T07:55:38.819Z,1011.48
2017-11-09T07:56:19.316Z,1011.45
2017-11-09T07:56:59.805Z,1011.46
2017-11-09T07:57:40.301Z,1011.5
2017-11-09T07:59:53.075Z,1011.46
2017-11-09T08:00:33.535Z,1011.49
2017-11-09T08:01:14.027Z,1011.52
2017-11-09T08:01:54.518Z,1011.49
2017-11-09T08:02:35.027Z,1011.48
2017-11-09T08:03:15.522Z,1011.48
2017-11-09T08:03:56.006Z,1011.5
2017-11-09T08:04:36.479Z,1011.51
2017-11-09T08:05:16.966Z,1011.52
2017-11-09T08:05:57.466Z,1011.54
2017-11-09T08:06:37.995Z,1011.54
2017-11-09T08:07:18.498Z,1011.54
2017-11-09T08:07:58.994Z,1011.58
2017-11-09T08:08:39.518Z,1011.56
2017-11-09T08:09:20.005Z,1011.55
2017-11-09T08:10:00.543Z,1011.53
2017-11-09T08:10:41.106Z,1011.58
2017-11-09T08:11:21.609Z,1011.54
2017-11-09T08:12:02.090Z,1011.55
2017-11-09T08:12:42.583Z,1011.56
2017-11-09T08:13:23.062Z,1011.59
2017-11-09T08:14:03.549Z,1011.63
2017-11-09T08:14:44.032Z,1011.57
2017-11-09T08:15:24.533Z,1011.63
2017-11-09T08:16:05.017Z,1011.64
2017-11-09T08:16:45.515Z,1011.63
2017-11-09T08:17:26.016Z,1011.61
2017-11-09T08:18:06.522Z,1011.63
2017-11-09T08:18:47.019Z,1011.67
2017-11-09T08:19:27.487Z,1011.66
2017-11-09T08:20:07.992Z,1011.68
2017-11-09T08:20:48.469Z,1011.65
2017-11-09T08:21:28.948Z,1011.66
2017-11-09T08:22:09.422Z,1011.68
2017-11-09T08:22:49.944Z,1011.66
2017-11-09T08:23:30.440Z,1011.66
2017-11-09T08:24:10.908Z,1011.68
2017-11-09T08:24:51.412Z,1011.65
2017-11-09T08:25:31.907Z,1011.67
2017-11-09T08:26:12.386Z,1011.73
2017-11-09T08:26:52.848Z,1011.7
2017-11-09T08:27:33.355Z,1011.75
2017-11-09T08:28:13.843Z,1011.72
2017-11-09T08:28:54.353Z,1011.76
2017-11-09T08:29:34.844Z,1011.75
2017-11-09T08:30:15.357Z,1011.78
2017-11-09T08:30:55.853Z,1011.8
2017-11-09T08:31:36.378Z,1011.82
2017-11-09T08:32:16.913Z,1011.8
2017-11-09T08:32:57.404Z,1011.83
2017-11-09T08:33:37.890Z,1011.86
2017-11-09T08:34:18.375Z,1011.82
2017-11-09T08:34:58.862Z,1011.84
2017-11-09T08:35:39.364Z,1011.86
2017-11-09T08:36:19.848Z,1011.84
2017-11-09T08:37:00.326Z,1011.86
2017-11-09T08:37:40.807Z,1011.87
2017-11-09T08:38:21.341Z,1011.88
2017-11-09T08:39:01.826Z,1011.86
2017-11-09T08:39:42.316Z,1011.88